sensor_id;sensor_type;location;lat;lon;timestamp;pressure;altitude;pressure_sealevel;temperature;humidity
61488;BME280;47351;53.326;-6.298;2023-01-31T00:01:05;102025.20;;;8.36;82.86
61488;BME280;47351;53.326;-6.298;2023-01-31T00:03:57;102018.02;;;8.34;83.13
61488;BME280;47351;53.326;-6.298;2023-01-31T00:06:51;102016.27;;;8.33;83.36
61488;BME280;47351;53.326;-6.298;2023-01-31T00:09:42;102017.26;;;8.32;83.54
61488;BME280;47351;53.326;-6.298;2023-01-31T00:12:35;102024.36;;;8.30;83.72
61488;BME280;47351;53.326;-6.298;2023-01-31T00:15:26;102014.71;;;8.28;83.88
61488;BME280;47351;53.326;-6.298;2023-01-31T00:18:17;102017.15;;;8.27;83.95
61488;BME280;47351;53.326;-6.298;2023-01-31T00:21:09;102019.83;;;8.27;84.14
61488;BME280;47351;53.326;-6.298;2023-01-31T00:24:00;102021.10;;;8.26;84.07
61488;BME280;47351;53.326;-6.298;2023-01-31T00:26:53;102004.55;;;8.26;84.14
61488;BME280;47351;53.326;-6.298;2023-01-31T00:29:49;101996.73;;;8.26;84.15
61488;BME280;47351;53.326;-6.298;2023-01-31T00:32:39;101993.13;;;8.27;84.36
61488;BME280;47351;53.326;-6.298;2023-01-31T00:35:33;101983.41;;;8.28;84.30
61488;BME280;47351;53.326;-6.298;2023-01-31T00:38:24;101983.61;;;8.30;84.28
61488;BME280;47351;53.326;-6.298;2023-01-31T00:41:16;101988.09;;;8.32;84.22
61488;BME280;47351;53.326;-6.298;2023-01-31T00:44:07;101981.18;;;8.34;84.40
61488;BME280;47351;53.326;-6.298;2023-01-31T00:46:59;101977.84;;;8.36;84.54
61488;BME280;47351;53.326;-6.298;2023-01-31T00:49:50;101973.98;;;8.39;84.52
61488;BME280;47351;53.326;-6.298;2023-01-31T00:52:40;101977.83;;;8.40;84.49
61488;BME280;47351;53.326;-6.298;2023-01-31T00:55:32;101987.88;;;8.41;84.62
61488;BME280;47351;53.326;-6.298;2023-01-31T00:58:23;101983.89;;;8.42;84.70
61488;BME280;47351;53.326;-6.298;2023-01-31T01:01:19;101978.26;;;8.43;84.83
61488;BME280;47351;53.326;-6.298;2023-01-31T01:04:12;101975.45;;;8.45;84.87
61488;BME280;47351;53.326;-6.298;2023-01-31T01:07:03;101975.42;;;8.48;84.71
61488;BME280;47351;53.326;-6.298;2023-01-31T01:09:55;101972.78;;;8.50;84.77
61488;BME280;47351;53.326;-6.298;2023-01-31T01:12:46;101967.41;;;8.53;84.82
61488;BME280;47351;53.326;-6.298;2023-01-31T01:15:37;101965.38;;;8.56;84.69
61488;BME280;47351;53.326;-6.298;2023-01-31T01:18:29;101953.86;;;8.58;84.57
61488;BME280;47351;53.326;-6.298;2023-01-31T01:21:26;101946.02;;;8.58;84.57
61488;BME280;47351;53.326;-6.298;2023-01-31T01:24:17;101945.64;;;8.56;84.88
61488;BME280;47351;53.326;-6.298;2023-01-31T01:27:08;101952.66;;;8.53;85.25
61488;BME280;47351;53.326;-6.298;2023-01-31T01:29:59;101949.02;;;8.49;85.59
61488;BME280;47351;53.326;-6.298;2023-01-31T01:32:50;101949.89;;;8.47;85.87
61488;BME280;47351;53.326;-6.298;2023-01-31T01:35:43;101947.58;;;8.45;85.94
61488;BME280;47351;53.326;-6.298;2023-01-31T01:38:34;101946.48;;;8.42;86.33
61488;BME280;47351;53.326;-6.298;2023-01-31T01:41:25;101938.09;;;8.38;86.75
61488;BME280;47351;53.326;-6.298;2023-01-31T01:47:28;101934.95;;;8.27;87.33
61488;BME280;47351;53.326;-6.298;2023-01-31T01:50:21;101934.88;;;8.23;87.71
61488;BME280;47351;53.326;-6.298;2023-01-31T01:53:13;101924.56;;;8.19;88.35
61488;BME280;47351;53.326;-6.298;2023-01-31T01:56:07;101925.05;;;8.16;88.86
61488;BME280;47351;53.326;-6.298;2023-01-31T01:58:59;101930.48;;;8.15;89.14
61488;BME280;47351;53.326;-6.298;2023-01-31T02:01:52;101927.52;;;8.14;89.35
61488;BME280;47351;53.326;-6.298;2023-01-31T02:04:49;101930.36;;;8.15;89.52
61488;BME280;47351;53.326;-6.298;2023-01-31T02:07:40;101928.52;;;8.16;89.88
61488;BME280;47351;53.326;-6.298;2023-01-31T02:10:31;101916.91;;;8.16;90.08
61488;BME280;47351;53.326;-6.298;2023-01-31T02:13:26;101919.04;;;8.16;90.12
61488;BME280;47351;53.326;-6.298;2023-01-31T02:16:17;101919.61;;;8.16;90.37
61488;BME280;47351;53.326;-6.298;2023-01-31T02:19:09;101909.68;;;8.15;90.43
61488;BME280;47351;53.326;-6.298;2023-01-31T02:22:11;101916.70;;;8.14;90.86
61488;BME280;47351;53.326;-6.298;2023-01-31T02:25:28;101913.55;;;8.13;90.72
61488;BME280;47351;53.326;-6.298;2023-01-31T02:31:40;101920.31;;;8.16;91.17
61488;BME280;47351;53.326;-6.298;2023-01-31T02:34:37;101921.47;;;8.17;91.19
61488;BME280;47351;53.326;-6.298;2023-01-31T02:37:35;101920.00;;;8.18;91.37
61488;BME280;47351;53.326;-6.298;2023-01-31T02:40:33;101908.23;;;8.18;91.92
61488;BME280;47351;53.326;-6.298;2023-01-31T02:43:29;101912.21;;;8.19;91.98
61488;BME280;47351;53.326;-6.298;2023-01-31T02:46:46;101898.85;;;8.20;92.24
61488;BME280;47351;53.326;-6.298;2023-01-31T02:49:41;101896.05;;;8.21;92.46
61488;BME280;47351;53.326;-6.298;2023-01-31T02:52:57;101893.98;;;8.23;92.52
61488;BME280;47351;53.326;-6.298;2023-01-31T02:56:09;101891.69;;;8.25;92.65
61488;BME280;47351;53.326;-6.298;2023-01-31T02:59:07;101896.66;;;8.30;93.09
61488;BME280;47351;53.326;-6.298;2023-01-31T03:01:59;101891.77;;;8.36;93.13
61488;BME280;47351;53.326;-6.298;2023-01-31T03:04:51;101894.09;;;8.41;93.02
61488;BME280;47351;53.326;-6.298;2023-01-31T03:07:42;101896.71;;;8.44;93.06
61488;BME280;47351;53.326;-6.298;2023-01-31T03:10:42;101901.10;;;8.45;93.11
61488;BME280;47351;53.326;-6.298;2023-01-31T03:13:38;101892.63;;;8.47;93.28
61488;BME280;47351;53.326;-6.298;2023-01-31T03:16:34;101896.23;;;8.50;93.71
61488;BME280;47351;53.326;-6.298;2023-01-31T03:19:45;101906.96;;;8.55;93.60
61488;BME280;47351;53.326;-6.298;2023-01-31T03:22:39;101901.45;;;8.57;93.71
61488;BME280;47351;53.326;-6.298;2023-01-31T03:25:33;101903.13;;;8.56;93.69
61488;BME280;47351;53.326;-6.298;2023-01-31T03:28:26;101897.41;;;8.54;93.78
61488;BME280;47351;53.326;-6.298;2023-01-31T03:31:17;101901.39;;;8.53;93.82
61488;BME280;47351;53.326;-6.298;2023-01-31T03:34:10;101905.15;;;8.52;94.17
61488;BME280;47351;53.326;-6.298;2023-01-31T03:37:04;101906.70;;;8.53;94.21
61488;BME280;47351;53.326;-6.298;2023-01-31T03:40:07;101902.04;;;8.53;94.13
61488;BME280;47351;53.326;-6.298;2023-01-31T03:43:05;101903.94;;;8.52;94.19
61488;BME280;47351;53.326;-6.298;2023-01-31T03:45:59;101912.24;;;8.50;94.64
61488;BME280;47351;53.326;-6.298;2023-01-31T03:48:52;101911.89;;;8.53;94.98
61488;BME280;47351;53.326;-6.298;2023-01-31T03:51:46;101907.25;;;8.55;95.22
61488;BME280;47351;53.326;-6.298;2023-01-31T03:54:40;101899.31;;;8.57;94.94
61488;BME280;47351;53.326;-6.298;2023-01-31T03:57:32;101903.51;;;8.56;95.27
61488;BME280;47351;53.326;-6.298;2023-01-31T04:00:24;101905.05;;;8.54;95.80
61488;BME280;47351;53.326;-6.298;2023-01-31T04:03:19;101910.18;;;8.52;96.07
61488;BME280;47351;53.326;-6.298;2023-01-31T04:06:10;101920.90;;;8.51;96.33
61488;BME280;47351;53.326;-6.298;2023-01-31T04:09:02;101924.45;;;8.52;96.56
61488;BME280;47351;53.326;-6.298;2023-01-31T04:11:53;101920.08;;;8.53;96.71
61488;BME280;47351;53.326;-6.298;2023-01-31T04:14:45;101923.80;;;8.55;97.10
61488;BME280;47351;53.326;-6.298;2023-01-31T04:17:36;101923.96;;;8.58;97.52
61488;BME280;47351;53.326;-6.298;2023-01-31T04:20:27;101927.50;;;8.61;97.42
61488;BME280;47351;53.326;-6.298;2023-01-31T04:23:17;101950.30;;;8.60;97.58
61488;BME280;47351;53.326;-6.298;2023-01-31T04:26:09;101956.60;;;8.59;97.46
61488;BME280;47351;53.326;-6.298;2023-01-31T04:29:00;101949.11;;;8.55;96.78
61488;BME280;47351;53.326;-6.298;2023-01-31T04:31:51;101950.31;;;8.48;96.02
61488;BME280;47351;53.326;-6.298;2023-01-31T04:34:41;101953.76;;;8.43;95.38
61488;BME280;47351;53.326;-6.298;2023-01-31T04:37:32;101966.77;;;8.40;95.07
61488;BME280;47351;53.326;-6.298;2023-01-31T04:40:23;101961.95;;;8.37;94.83
61488;BME280;47351;53.326;-6.298;2023-01-31T04:43:14;101967.36;;;8.33;94.45
61488;BME280;47351;53.326;-6.298;2023-01-31T04:46:05;101975.84;;;8.30;93.37
61488;BME280;47351;53.326;-6.298;2023-01-31T04:48:55;101982.86;;;8.24;92.14
61488;BME280;47351;53.326;-6.298;2023-01-31T04:51:46;101985.44;;;8.15;91.26
61488;BME280;47351;53.326;-6.298;2023-01-31T04:54:37;101985.14;;;8.05;90.45
61488;BME280;47351;53.326;-6.298;2023-01-31T04:57:28;101985.56;;;7.94;89.85
61488;BME280;47351;53.326;-6.298;2023-01-31T05:00:20;101984.44;;;7.82;89.01
61488;BME280;47351;53.326;-6.298;2023-01-31T05:03:11;101984.52;;;7.74;88.30
61488;BME280;47351;53.326;-6.298;2023-01-31T05:06:02;101989.46;;;7.66;88.14
61488;BME280;47351;53.326;-6.298;2023-01-31T05:08:53;101993.92;;;7.58;87.81
61488;BME280;47351;53.326;-6.298;2023-01-31T05:11:44;101997.06;;;7.49;87.63
61488;BME280;47351;53.326;-6.298;2023-01-31T05:14:35;101991.54;;;7.39;87.31
61488;BME280;47351;53.326;-6.298;2023-01-31T05:17:26;101994.98;;;7.30;87.07
61488;BME280;47351;53.326;-6.298;2023-01-31T05:20:19;101994.32;;;7.25;86.96
61488;BME280;47351;53.326;-6.298;2023-01-31T05:23:11;101996.79;;;7.19;86.86
61488;BME280;47351;53.326;-6.298;2023-01-31T05:26:01;101991.48;;;7.14;86.54
61488;BME280;47351;53.326;-6.298;2023-01-31T05:28:52;101982.55;;;7.10;86.21
61488;BME280;47351;53.326;-6.298;2023-01-31T05:31:43;101983.88;;;7.06;86.00
61488;BME280;47351;53.326;-6.298;2023-01-31T05:34:34;101984.73;;;7.01;85.78
61488;BME280;47351;53.326;-6.298;2023-01-31T05:37:25;101981.20;;;6.98;85.58
61488;BME280;47351;53.326;-6.298;2023-01-31T05:40:15;101980.16;;;6.95;85.45
61488;BME280;47351;53.326;-6.298;2023-01-31T05:43:06;101980.23;;;6.91;85.38
61488;BME280;47351;53.326;-6.298;2023-01-31T05:45:57;101973.75;;;6.87;85.08
61488;BME280;47351;53.326;-6.298;2023-01-31T05:48:48;101968.64;;;6.85;85.04
61488;BME280;47351;53.326;-6.298;2023-01-31T05:51:38;101962.33;;;6.81;85.14
61488;BME280;47351;53.326;-6.298;2023-01-31T05:54:29;101960.43;;;6.77;85.05
61488;BME280;47351;53.326;-6.298;2023-01-31T05:57:20;101960.17;;;6.76;84.95
61488;BME280;47351;53.326;-6.298;2023-01-31T06:00:12;101953.02;;;6.74;85.03
61488;BME280;47351;53.326;-6.298;2023-01-31T06:03:03;101950.40;;;6.73;85.15
61488;BME280;47351;53.326;-6.298;2023-01-31T06:05:54;101947.59;;;6.73;85.37
61488;BME280;47351;53.326;-6.298;2023-01-31T06:08:44;101947.18;;;6.73;85.69
61488;BME280;47351;53.326;-6.298;2023-01-31T06:11:35;101956.55;;;6.74;86.05
61488;BME280;47351;53.326;-6.298;2023-01-31T06:14:26;101964.58;;;6.73;86.45
61488;BME280;47351;53.326;-6.298;2023-01-31T06:17:16;101972.54;;;6.74;86.83
61488;BME280;47351;53.326;-6.298;2023-01-31T06:20:08;101971.48;;;6.74;87.00
61488;BME280;47351;53.326;-6.298;2023-01-31T06:22:58;101972.48;;;6.75;87.06
61488;BME280;47351;53.326;-6.298;2023-01-31T06:25:49;101974.45;;;6.77;87.08
61488;BME280;47351;53.326;-6.298;2023-01-31T06:28:40;101974.71;;;6.81;87.07
61488;BME280;47351;53.326;-6.298;2023-01-31T06:31:33;101971.97;;;6.85;87.02
61488;BME280;47351;53.326;-6.298;2023-01-31T06:34:24;101970.85;;;6.88;87.01
61488;BME280;47351;53.326;-6.298;2023-01-31T06:37:15;101973.82;;;6.91;87.08
61488;BME280;47351;53.326;-6.298;2023-01-31T06:40:06;101969.10;;;6.93;87.24
61488;BME280;47351;53.326;-6.298;2023-01-31T06:42:57;101970.79;;;6.94;87.23
61488;BME280;47351;53.326;-6.298;2023-01-31T06:45:47;101972.38;;;6.94;87.15
61488;BME280;47351;53.326;-6.298;2023-01-31T06:48:38;101978.02;;;6.95;86.97
61488;BME280;47351;53.326;-6.298;2023-01-31T06:51:29;101976.36;;;6.96;86.79
61488;BME280;47351;53.326;-6.298;2023-01-31T06:54:19;101979.91;;;6.96;86.58
61488;BME280;47351;53.326;-6.298;2023-01-31T06:57:10;101976.43;;;6.95;86.42
61488;BME280;47351;53.326;-6.298;2023-01-31T07:00:01;101973.87;;;6.93;86.29
61488;BME280;47351;53.326;-6.298;2023-01-31T07:02:52;101979.64;;;6.92;86.18
61488;BME280;47351;53.326;-6.298;2023-01-31T07:05:46;101981.25;;;6.92;86.14
61488;BME280;47351;53.326;-6.298;2023-01-31T07:08:37;101982.88;;;6.92;85.96
61488;BME280;47351;53.326;-6.298;2023-01-31T07:11:27;101991.06;;;6.91;85.73
61488;BME280;47351;53.326;-6.298;2023-01-31T07:14:20;101994.01;;;6.92;85.32
61488;BME280;47351;53.326;-6.298;2023-01-31T07:17:10;102001.15;;;6.94;85.06
61488;BME280;47351;53.326;-6.298;2023-01-31T07:20:03;102003.23;;;6.95;84.99
61488;BME280;47351;53.326;-6.298;2023-01-31T07:22:54;102014.83;;;6.94;84.90
61488;BME280;47351;53.326;-6.298;2023-01-31T07:25:45;102025.74;;;6.93;84.84
61488;BME280;47351;53.326;-6.298;2023-01-31T07:28:35;102036.38;;;6.91;84.80
61488;BME280;47351;53.326;-6.298;2023-01-31T07:31:26;102036.17;;;6.88;84.70
61488;BME280;47351;53.326;-6.298;2023-01-31T07:34:17;102042.10;;;6.87;84.70
61488;BME280;47351;53.326;-6.298;2023-01-31T07:37:10;102040.23;;;6.86;84.71
61488;BME280;47351;53.326;-6.298;2023-01-31T07:40:01;102045.81;;;6.85;84.62
61488;BME280;47351;53.326;-6.298;2023-01-31T07:42:57;102047.66;;;6.83;84.63
61488;BME280;47351;53.326;-6.298;2023-01-31T07:45:48;102053.81;;;6.84;84.65
61488;BME280;47351;53.326;-6.298;2023-01-31T07:48:38;102054.58;;;6.86;84.67
61488;BME280;47351;53.326;-6.298;2023-01-31T07:51:29;102061.83;;;6.89;84.72
61488;BME280;47351;53.326;-6.298;2023-01-31T07:54:21;102062.70;;;6.92;84.82
61488;BME280;47351;53.326;-6.298;2023-01-31T07:57:12;102069.88;;;6.96;84.97
61488;BME280;47351;53.326;-6.298;2023-01-31T08:00:07;102063.21;;;7.01;85.01
61488;BME280;47351;53.326;-6.298;2023-01-31T08:03:22;102067.59;;;7.04;84.83
61488;BME280;47351;53.326;-6.298;2023-01-31T08:06:22;102068.06;;;7.05;84.62
61488;BME280;47351;53.326;-6.298;2023-01-31T08:09:13;102072.45;;;7.03;84.68
61488;BME280;47351;53.326;-6.298;2023-01-31T08:12:04;102079.05;;;7.00;84.66
61488;BME280;47351;53.326;-6.298;2023-01-31T08:14:55;102081.49;;;6.98;84.66
61488;BME280;47351;53.326;-6.298;2023-01-31T08:17:46;102086.91;;;6.96;84.78
61488;BME280;47351;53.326;-6.298;2023-01-31T08:20:36;102088.09;;;6.98;84.91
61488;BME280;47351;53.326;-6.298;2023-01-31T08:23:27;102091.48;;;7.00;85.01
61488;BME280;47351;53.326;-6.298;2023-01-31T08:26:20;102093.98;;;7.03;84.95
61488;BME280;47351;53.326;-6.298;2023-01-31T08:29:13;102101.67;;;7.04;84.89
61488;BME280;47351;53.326;-6.298;2023-01-31T08:32:04;102098.46;;;7.07;84.83
61488;BME280;47351;53.326;-6.298;2023-01-31T08:34:56;102092.30;;;7.09;84.85
61488;BME280;47351;53.326;-6.298;2023-01-31T08:37:47;102087.80;;;7.10;84.75
61488;BME280;47351;53.326;-6.298;2023-01-31T08:40:37;102083.05;;;7.10;84.59
61488;BME280;47351;53.326;-6.298;2023-01-31T08:43:28;102079.42;;;7.08;84.62
61488;BME280;47351;53.326;-6.298;2023-01-31T08:46:31;102079.11;;;7.07;84.59
61488;BME280;47351;53.326;-6.298;2023-01-31T08:49:21;102077.94;;;7.09;84.62
61488;BME280;47351;53.326;-6.298;2023-01-31T08:52:12;102080.02;;;7.12;84.61
61488;BME280;47351;53.326;-6.298;2023-01-31T08:55:03;102082.33;;;7.15;84.55
61488;BME280;47351;53.326;-6.298;2023-01-31T08:57:57;102080.95;;;7.14;84.62
61488;BME280;47351;53.326;-6.298;2023-01-31T09:00:48;102079.04;;;7.11;84.72
61488;BME280;47351;53.326;-6.298;2023-01-31T09:03:39;102083.89;;;7.10;84.86
61488;BME280;47351;53.326;-6.298;2023-01-31T09:06:33;102089.55;;;7.13;84.98
61488;BME280;47351;53.326;-6.298;2023-01-31T09:09:25;102098.38;;;7.16;85.03
61488;BME280;47351;53.326;-6.298;2023-01-31T09:12:18;102098.55;;;7.22;84.86
61488;BME280;47351;53.326;-6.298;2023-01-31T09:15:09;102097.92;;;7.29;84.85
61488;BME280;47351;53.326;-6.298;2023-01-31T09:18:00;102098.79;;;7.34;84.65
61488;BME280;47351;53.326;-6.298;2023-01-31T09:20:52;102103.08;;;7.41;84.25
61488;BME280;47351;53.326;-6.298;2023-01-31T09:23:44;102104.08;;;7.51;83.89
61488;BME280;47351;53.326;-6.298;2023-01-31T09:26:35;102102.33;;;7.61;83.51
61488;BME280;47351;53.326;-6.298;2023-01-31T09:29:31;102108.73;;;7.74;83.09
61488;BME280;47351;53.326;-6.298;2023-01-31T09:32:21;102130.38;;;7.84;82.49
61488;BME280;47351;53.326;-6.298;2023-01-31T09:35:12;102127.23;;;7.89;82.09
61488;BME280;47351;53.326;-6.298;2023-01-31T09:38:02;102128.59;;;8.00;81.86
61488;BME280;47351;53.326;-6.298;2023-01-31T09:40:53;102128.98;;;8.15;81.42
61488;BME280;47351;53.326;-6.298;2023-01-31T09:43:44;102139.40;;;8.26;80.45
61488;BME280;47351;53.326;-6.298;2023-01-31T09:46:41;102135.17;;;8.36;79.56
61488;BME280;47351;53.326;-6.298;2023-01-31T09:49:53;102135.27;;;8.42;78.79
61488;BME280;47351;53.326;-6.298;2023-01-31T09:52:45;102139.26;;;8.41;78.12
61488;BME280;47351;53.326;-6.298;2023-01-31T09:55:38;102139.08;;;8.38;77.54
61488;BME280;47351;53.326;-6.298;2023-01-31T09:58:36;102138.40;;;8.30;77.17
61488;BME280;47351;53.326;-6.298;2023-01-31T10:01:33;102135.90;;;8.20;77.22
61488;BME280;47351;53.326;-6.298;2023-01-31T10:04:32;102136.14;;;8.14;77.14
61488;BME280;47351;53.326;-6.298;2023-01-31T10:07:33;102134.60;;;8.08;76.77
61488;BME280;47351;53.326;-6.298;2023-01-31T10:10:26;102134.30;;;8.07;76.84
61488;BME280;47351;53.326;-6.298;2023-01-31T10:13:27;102133.16;;;8.06;76.39
61488;BME280;47351;53.326;-6.298;2023-01-31T10:16:54;102135.86;;;8.05;76.49
61488;BME280;47351;53.326;-6.298;2023-01-31T10:19:47;102138.91;;;8.07;76.41
61488;BME280;47351;53.326;-6.298;2023-01-31T10:22:40;102144.86;;;8.09;76.28
61488;BME280;47351;53.326;-6.298;2023-01-31T10:25:33;102150.59;;;8.11;76.21
61488;BME280;47351;53.326;-6.298;2023-01-31T10:28:28;102163.33;;;8.15;75.89
61488;BME280;47351;53.326;-6.298;2023-01-31T10:31:24;102163.15;;;8.19;75.50
61488;BME280;47351;53.326;-6.298;2023-01-31T10:34:18;102161.41;;;8.26;75.18
61488;BME280;47351;53.326;-6.298;2023-01-31T10:37:15;102172.29;;;8.34;74.08
61488;BME280;47351;53.326;-6.298;2023-01-31T10:40:13;102185.73;;;8.38;72.75
61488;BME280;47351;53.326;-6.298;2023-01-31T10:43:26;102189.57;;;8.42;72.02
61488;BME280;47351;53.326;-6.298;2023-01-31T10:46:34;102190.20;;;8.48;71.69
61488;BME280;47351;53.326;-6.298;2023-01-31T10:49:25;102192.89;;;8.60;71.46
61488;BME280;47351;53.326;-6.298;2023-01-31T10:52:34;102193.78;;;8.70;70.14
61488;BME280;47351;53.326;-6.298;2023-01-31T10:55:34;102188.29;;;8.82;69.62
61488;BME280;47351;53.326;-6.298;2023-01-31T10:58:31;102198.87;;;8.96;69.16
61488;BME280;47351;53.326;-6.298;2023-01-31T11:01:22;102194.06;;;9.00;68.61
61488;BME280;47351;53.326;-6.298;2023-01-31T11:04:19;102191.53;;;9.14;68.33
61488;BME280;47351;53.326;-6.298;2023-01-31T11:07:12;102190.57;;;9.21;67.88
61488;BME280;47351;53.326;-6.298;2023-01-31T11:10:03;102194.36;;;9.18;68.15
61488;BME280;47351;53.326;-6.298;2023-01-31T11:13:31;102193.63;;;9.24;68.60
61488;BME280;47351;53.326;-6.298;2023-01-31T11:16:22;102199.23;;;9.22;68.89
61488;BME280;47351;53.326;-6.298;2023-01-31T11:19:14;102194.73;;;9.20;68.85
61488;BME280;47351;53.326;-6.298;2023-01-31T11:22:20;102189.89;;;9.21;68.87
61488;BME280;47351;53.326;-6.298;2023-01-31T11:25:16;102196.91;;;9.22;68.45
61488;BME280;47351;53.326;-6.298;2023-01-31T11:28:17;102195.81;;;9.25;68.30
61488;BME280;47351;53.326;-6.298;2023-01-31T11:31:16;102201.35;;;9.28;67.82
61488;BME280;47351;53.326;-6.298;2023-01-31T11:34:18;102206.54;;;9.30;67.02
61488;BME280;47351;53.326;-6.298;2023-01-31T11:37:14;102197.61;;;9.44;66.76
61488;BME280;47351;53.326;-6.298;2023-01-31T11:40:16;102192.48;;;10.30;65.64
61488;BME280;47351;53.326;-6.298;2023-01-31T11:43:22;102181.01;;;11.80;62.28
61488;BME280;47351;53.326;-6.298;2023-01-31T11:46:13;102176.76;;;14.26;57.30
61488;BME280;47351;53.326;-6.298;2023-01-31T11:49:03;102160.73;;;16.11;52.59
61488;BME280;47351;53.326;-6.298;2023-01-31T11:52:00;102161.98;;;17.37;48.56
61488;BME280;47351;53.326;-6.298;2023-01-31T11:54:53;102159.09;;;17.69;48.32
61488;BME280;47351;53.326;-6.298;2023-01-31T11:57:44;102155.05;;;18.63;47.60
61488;BME280;47351;53.326;-6.298;2023-01-31T12:00:35;102157.24;;;19.28;44.24
61488;BME280;47351;53.326;-6.298;2023-01-31T12:03:25;102158.28;;;19.51;43.08
61488;BME280;47351;53.326;-6.298;2023-01-31T12:06:26;102154.80;;;20.11;40.36
61488;BME280;47351;53.326;-6.298;2023-01-31T12:09:21;102153.50;;;20.79;39.78
61488;BME280;47351;53.326;-6.298;2023-01-31T12:12:26;102159.40;;;21.06;37.92
61488;BME280;47351;53.326;-6.298;2023-01-31T12:15:17;102148.02;;;21.08;37.51
61488;BME280;47351;53.326;-6.298;2023-01-31T12:18:09;102141.36;;;21.14;37.15
61488;BME280;47351;53.326;-6.298;2023-01-31T12:21:02;102142.28;;;21.51;35.67
61488;BME280;47351;53.326;-6.298;2023-01-31T12:23:58;102140.55;;;21.97;35.34
61488;BME280;47351;53.326;-6.298;2023-01-31T12:27:13;102137.94;;;22.21;33.78
61488;BME280;47351;53.326;-6.298;2023-01-31T12:30:20;102127.68;;;22.34;34.11
61488;BME280;47351;53.326;-6.298;2023-01-31T12:33:17;102134.90;;;22.79;34.31
61488;BME280;47351;53.326;-6.298;2023-01-31T12:36:36;102120.77;;;22.84;33.30
61488;BME280;47351;53.326;-6.298;2023-01-31T12:39:43;102123.48;;;23.03;33.31
61488;BME280;47351;53.326;-6.298;2023-01-31T12:42:43;102127.91;;;23.25;33.24
61488;BME280;47351;53.326;-6.298;2023-01-31T12:45:52;102127.79;;;23.34;32.16
61488;BME280;47351;53.326;-6.298;2023-01-31T12:48:48;102132.64;;;23.18;31.84
61488;BME280;47351;53.326;-6.298;2023-01-31T12:51:47;102137.05;;;23.19;31.76
61488;BME280;47351;53.326;-6.298;2023-01-31T12:54:50;102134.77;;;23.12;31.65
61488;BME280;47351;53.326;-6.298;2023-01-31T12:57:47;102131.42;;;23.14;31.67
61488;BME280;47351;53.326;-6.298;2023-01-31T13:00:42;102128.96;;;22.37;30.73
61488;BME280;47351;53.326;-6.298;2023-01-31T13:03:46;102137.66;;;20.66;32.42
61488;BME280;47351;53.326;-6.298;2023-01-31T13:06:40;102147.43;;;18.60;34.67
61488;BME280;47351;53.326;-6.298;2023-01-31T13:09:33;102144.80;;;17.18;36.59
61488;BME280;47351;53.326;-6.298;2023-01-31T13:12:26;102129.20;;;16.27;38.40
61488;BME280;47351;53.326;-6.298;2023-01-31T13:15:25;102133.46;;;15.54;39.72
61488;BME280;47351;53.326;-6.298;2023-01-31T13:18:16;102137.48;;;14.65;40.74
61488;BME280;47351;53.326;-6.298;2023-01-31T13:21:08;102137.11;;;13.83;42.54
61488;BME280;47351;53.326;-6.298;2023-01-31T13:24:02;102139.49;;;14.05;43.18
61488;BME280;47351;53.326;-6.298;2023-01-31T13:26:55;102135.23;;;14.72;43.53
61488;BME280;47351;53.326;-6.298;2023-01-31T13:29:48;102128.35;;;14.35;42.70
61488;BME280;47351;53.326;-6.298;2023-01-31T13:32:41;102141.30;;;14.09;42.14
61488;BME280;47351;53.326;-6.298;2023-01-31T13:35:36;102155.81;;;13.16;43.16
61488;BME280;47351;53.326;-6.298;2023-01-31T13:38:29;102153.69;;;12.29;44.87
61488;BME280;47351;53.326;-6.298;2023-01-31T13:41:25;102156.83;;;11.78;46.43
61488;BME280;47351;53.326;-6.298;2023-01-31T13:44:16;102158.04;;;11.64;47.29
61488;BME280;47351;53.326;-6.298;2023-01-31T13:47:11;102158.15;;;11.46;47.92
61488;BME280;47351;53.326;-6.298;2023-01-31T13:50:06;102153.07;;;11.26;48.58
61488;BME280;47351;53.326;-6.298;2023-01-31T13:53:56;102146.13;;;11.50;48.65
61488;BME280;47351;53.326;-6.298;2023-01-31T13:56:49;102144.54;;;11.72;48.18
61488;BME280;47351;53.326;-6.298;2023-01-31T13:59:42;102145.17;;;11.38;49.08
61488;BME280;47351;53.326;-6.298;2023-01-31T14:03:11;102144.45;;;10.82;50.62
61488;BME280;47351;53.326;-6.298;2023-01-31T14:06:02;102138.94;;;10.49;51.94
61488;BME280;47351;53.326;-6.298;2023-01-31T14:09:02;102139.14;;;10.30;53.06
61488;BME280;47351;53.326;-6.298;2023-01-31T14:11:53;102160.78;;;10.70;53.00
61488;BME280;47351;53.326;-6.298;2023-01-31T14:14:44;102141.77;;;11.75;51.01
61488;BME280;47351;53.326;-6.298;2023-01-31T14:20:43;102127.46;;;12.87;48.93
61488;BME280;47351;53.326;-6.298;2023-01-31T14:23:43;102133.63;;;12.23;49.25
61488;BME280;47351;53.326;-6.298;2023-01-31T14:26:48;102133.33;;;11.33;50.38
61488;BME280;47351;53.326;-6.298;2023-01-31T14:29:47;102136.88;;;10.68;51.58
61488;BME280;47351;53.326;-6.298;2023-01-31T14:32:40;102133.14;;;10.50;52.28
61488;BME280;47351;53.326;-6.298;2023-01-31T14:35:42;102127.25;;;10.18;53.16
61488;BME280;47351;53.326;-6.298;2023-01-31T14:38:45;102143.52;;;9.83;53.99
61488;BME280;47351;53.326;-6.298;2023-01-31T14:42:32;102146.39;;;9.58;54.89
61488;BME280;47351;53.326;-6.298;2023-01-31T14:45:29;102147.27;;;9.46;55.29
61488;BME280;47351;53.326;-6.298;2023-01-31T14:49:33;102146.43;;;9.87;55.35
61488;BME280;47351;53.326;-6.298;2023-01-31T14:52:42;102142.07;;;10.45;54.20
61488;BME280;47351;53.326;-6.298;2023-01-31T14:55:52;102137.84;;;10.47;54.39
61488;BME280;47351;53.326;-6.298;2023-01-31T14:58:59;102136.20;;;10.38;54.81
61488;BME280;47351;53.326;-6.298;2023-01-31T15:01:49;102141.94;;;10.42;54.79
61488;BME280;47351;53.326;-6.298;2023-01-31T15:04:40;102149.84;;;10.23;55.16
61488;BME280;47351;53.326;-6.298;2023-01-31T15:07:33;102141.83;;;10.21;54.83
61488;BME280;47351;53.326;-6.298;2023-01-31T15:13:38;102148.48;;;9.81;55.85
61488;BME280;47351;53.326;-6.298;2023-01-31T15:16:30;102147.61;;;9.67;56.14
61488;BME280;47351;53.326;-6.298;2023-01-31T15:19:22;102145.39;;;9.65;56.16
61488;BME280;47351;53.326;-6.298;2023-01-31T15:22:15;102141.36;;;9.53;56.62
61488;BME280;47351;53.326;-6.298;2023-01-31T15:25:07;102140.63;;;9.39;56.74